createdAt,value
2018-09-04T00:00:01.123Z,22.54
2018-09-04T00:00:33.192Z,22.55
2018-09-04T00:01:05.342Z,22.54
2018-09-04T00:01:37.684Z,22.54
2018-09-04T00:02:09.889Z,22.55
2018-09-04T00:02:42.198Z,22.55
2018-09-04T00:03:14.302Z,22.55
2018-09-04T00:03:46.435Z,22.54
2018-09-04T00:04:18.511Z,22.55
2018-09-04T00:04:50.640Z,22.53
2018-09-04T00:05:22.709Z,22.53
2018-09-04T00:05:54.957Z,22.54
2018-09-04T00:06:27.120Z,22.54
2018-09-04T00:06:59.342Z,22.53
2018-09-04T00:07:31.478Z,22.54
2018-09-04T00:08:03.764Z,22.55
2018-09-04T00:08:35.845Z,22.53
2018-09-04T00:09:07.968Z,22.54
2018-09-04T00:09:40.182Z,22.55
2018-09-04T00:10:12.325Z,22.55
2018-09-04T00:10:44.434Z,22.55
2018-09-04T00:11:16.542Z,22.54
2018-09-04T00:11:48.692Z,22.55
2018-09-04T00:12:20.839Z,22.53
2018-09-04T00:12:53.022Z,22.54
2018-09-04T00:13:25.179Z,22.54
2018-09-04T00:13:57.479Z,22.55
2018-09-04T00:14:29.802Z,22.54
2018-09-04T00:15:01.923Z,22.55
2018-09-04T00:15:34.033Z,22.55
2018-09-04T00:16:06.403Z,22.55
2018-09-04T00:16:38.561Z,22.56
2018-09-04T00:17:10.678Z,22.55
2018-09-04T00:17:42.781Z,22.55
2018-09-04T00:18:14.875Z,22.56
2018-09-04T00:18:47.008Z,22.55
2018-09-04T00:19:19.164Z,22.55
2018-09-04T00:19:51.390Z,22.54
2018-09-04T00:20:23.809Z,22.54
2018-09-04T00:20:55.962Z,22.53
2018-09-04T00:21:28.074Z,22.54
2018-09-04T00:22:00.194Z,22.53
2018-09-04T00:22:32.288Z,22.53
2018-09-04T00:23:04.351Z,22.55
2018-09-04T00:23:36.441Z,22.55
2018-09-04T00:24:08.541Z,22.53
2018-09-04T00:24:40.819Z,22.53
2018-09-04T00:25:13.128Z,22.55
2018-09-04T00:25:45.263Z,22.53
2018-09-04T00:26:17.498Z,22.53
2018-09-04T00:26:49.660Z,22.54
2018-09-04T00:27:21.776Z,22.54
2018-09-04T00:27:53.944Z,22.54
2018-09-04T00:28:26.047Z,22.54
2018-09-04T00:28:58.276Z,22.54
2018-09-04T00:29:30.567Z,22.56
2018-09-04T00:30:02.754Z,22.55
2018-09-04T00:30:34.851Z,22.54
2018-09-04T00:31:07.073Z,22.54
2018-09-04T00:31:39.332Z,22.54
2018-09-04T00:32:11.640Z,22.55
2018-09-04T00:32:43.778Z,22.55
2018-09-04T00:33:16.154Z,22.55
2018-09-04T00:33:48.247Z,22.55
2018-09-04T00:34:20.392Z,22.55
2018-09-04T00:34:52.544Z,22.55
2018-09-04T00:35:24.646Z,22.53
2018-09-04T00:35:56.741Z,22.53
2018-09-04T00:36:28.865Z,22.54
2018-09-04T00:37:00.958Z,22.55
2018-09-04T00:37:33.222Z,22.55
2018-09-04T00:38:05.323Z,22.55
2018-09-04T00:38:37.459Z,22.54
2018-09-04T00:39:09.540Z,22.54
2018-09-04T00:39:41.771Z,22.54
2018-09-04T00:40:13.893Z,22.55
2018-09-04T00:40:46.009Z,22.55
2018-09-04T00:41:18.144Z,22.54
2018-09-04T00:41:50.235Z,22.54
2018-09-04T00:42:22.302Z,22.53
2018-09-04T00:42:54.597Z,22.53
2018-09-04T00:43:27.080Z,22.52
2018-09-04T00:43:59.256Z,22.51
2018-09-04T00:44:31.352Z,22.52
2018-09-04T00:45:03.470Z,22.52
2018-09-04T00:45:35.795Z,22.53
2018-09-04T00:46:07.890Z,22.52
2018-09-04T00:46:40.101Z,22.53
2018-09-04T00:47:12.449Z,22.53
2018-09-04T00:47:44.724Z,22.52
2018-09-04T00:48:16.935Z,22.53
2018-09-04T00:48:49.049Z,22.52
2018-09-04T00:49:21.129Z,22.54
2018-09-04T00:49:53.210Z,22.53
2018-09-04T00:50:25.326Z,22.53
2018-09-04T00:50:57.463Z,22.52
2018-09-04T00:51:29.586Z,22.53
2018-09-04T00:52:01.915Z,22.54
2018-09-04T00:52:34.192Z,22.52
2018-09-04T00:53:06.325Z,22.53
2018-09-04T00:53:38.469Z,22.53
2018-09-04T00:54:10.586Z,22.53
2018-09-04T00:54:42.653Z,22.52
2018-09-04T00:55:14.878Z,22.52
2018-09-04T00:55:46.984Z,22.51
2018-09-04T00:56:19.173Z,22.53
2018-09-04T00:56:51.310Z,22.52
2018-09-04T00:57:23.423Z,22.52
2018-09-04T00:57:55.502Z,22.52
2018-09-04T00:58:27.596Z,22.53
2018-09-04T00:59:00.087Z,22.52
2018-09-04T00:59:32.158Z,22.52
2018-09-04T01:00:04.309Z,22.54
2018-09-04T01:00:36.418Z,22.55
2018-09-04T01:01:08.636Z,22.53
2018-09-04T01:01:40.954Z,22.55
2018-09-04T01:02:13.058Z,22.54
2018-09-04T01:02:45.173Z,22.54
2018-09-04T01:03:17.389Z,22.54
2018-09-04T01:03:49.509Z,22.54
2018-09-04T01:04:21.691Z,22.53
2018-09-04T01:04:53.808Z,22.53
2018-09-04T01:05:25.897Z,22.53
2018-09-04T01:05:58.042Z,22.53
2018-09-04T01:06:30.153Z,22.52
2018-09-04T01:07:02.283Z,22.51
2018-09-04T01:07:34.404Z,22.52
2018-09-04T01:08:06.487Z,22.52
2018-09-04T01:08:38.616Z,22.53
2018-09-04T01:09:10.753Z,22.53
2018-09-04T01:09:43.139Z,22.52
2018-09-04T01:10:15.359Z,22.52
2018-09-04T01:10:47.434Z,22.52
2018-09-04T01:11:19.554Z,22.51
2018-09-04T01:11:51.665Z,22.51
2018-09-04T01:12:23.778Z,22.51
2018-09-04T01:12:55.887Z,22.52
2018-09-04T01:13:28.127Z,22.53
2018-09-04T01:14:00.248Z,22.52
2018-09-04T01:14:32.405Z,22.52
2018-09-04T01:15:04.580Z,22.52
2018-09-04T01:15:36.842Z,22.52
2018-09-04T01:16:08.894Z,22.51
2018-09-04T01:16:41.119Z,22.52
2018-09-04T01:17:13.239Z,22.51
2018-09-04T01:17:45.442Z,22.52
2018-09-04T01:18:17.569Z,22.52
2018-09-04T01:18:49.677Z,22.52
2018-09-04T01:19:21.846Z,22.53
2018-09-04T01:19:53.985Z,22.52
2018-09-04T01:20:26.079Z,22.52
2018-09-04T01:20:58.179Z,22.51
2018-09-04T01:21:30.290Z,22.52
2018-09-04T01:22:02.442Z,22.52
2018-09-04T01:22:34.631Z,22.53
2018-09-04T01:23:06.918Z,22.51
2018-09-04T01:23:39.013Z,22.52
2018-09-04T01:24:11.151Z,22.51
2018-09-04T01:24:43.277Z,22.51
2018-09-04T01:25:15.360Z,22.52
2018-09-04T01:25:47.520Z,22.51
2018-09-04T01:26:19.779Z,22.50
2018-09-04T01:26:51.889Z,22.51
2018-09-04T01:27:24.130Z,22.52
2018-09-04T01:27:56.228Z,22.52
2018-09-04T01:28:28.493Z,22.53
2018-09-04T01:29:00.592Z,22.51
2018-09-04T01:29:32.694Z,22.51
2018-09-04T01:30:04.805Z,22.51
2018-09-04T01:30:36.997Z,22.51
2018-09-04T01:31:09.252Z,22.52
2018-09-04T01:31:41.553Z,22.51
2018-09-04T01:32:13.718Z,22.51
2018-09-04T01:32:45.784Z,22.51
2018-09-04T01:33:17.974Z,22.51
2018-09-04T01:33:50.082Z,22.51
2018-09-04T01:34:22.193Z,22.48
2018-09-04T01:34:54.302Z,22.51
2018-09-04T01:35:26.384Z,22.49
2018-09-04T01:35:58.492Z,22.49
2018-09-04T01:36:30.630Z,22.49
2018-09-04T01:37:02.847Z,22.49
2018-09-04T01:37:35.042Z,22.50
2018-09-04T01:38:07.143Z,22.51
2018-09-04T01:38:39.221Z,22.51
2018-09-04T01:39:11.366Z,22.50
2018-09-04T01:39:43.657Z,22.51
2018-09-04T01:40:15.764Z,22.50
2018-09-04T01:40:48.071Z,22.48
2018-09-04T01:41:20.482Z,22.51
2018-09-04T01:41:52.610Z,22.52
2018-09-04T01:42:24.714Z,22.51
2018-09-04T01:42:57.030Z,22.52
2018-09-04T01:43:29.147Z,22.51
2018-09-04T01:44:01.257Z,22.50
2018-09-04T01:44:33.382Z,22.50
2018-09-04T01:45:05.525Z,22.50
2018-09-04T01:45:37.802Z,22.48
2018-09-04T01:46:09.923Z,22.50
2018-09-04T01:46:42.102Z,22.51
2018-09-04T01:47:14.262Z,22.50
2018-09-04T01:47:46.647Z,22.51
2018-09-04T01:48:18.796Z,22.51
2018-09-04T01:48:50.993Z,22.52
2018-09-04T01:49:23.143Z,22.51
2018-09-04T01:49:55.305Z,22.51
2018-09-04T01:50:27.549Z,22.50
2018-09-04T01:50:59.604Z,22.50
2018-09-04T01:51:31.711Z,22.51
2018-09-04T01:52:03.820Z,22.50
2018-09-04T01:52:36.078Z,22.51
2018-09-04T01:53:08.134Z,22.52
2018-09-04T01:53:40.272Z,22.51
2018-09-04T01:54:12.422Z,22.51
2018-09-04T01:54:44.589Z,22.51
2018-09-04T01:55:16.719Z,22.51
2018-09-04T01:55:48.907Z,22.51
2018-09-04T01:56:21.104Z,22.51
2018-09-04T01:56:53.225Z,22.51
2018-09-04T01:57:25.357Z,22.50
2018-09-04T01:57:57.565Z,22.51
2018-09-04T01:58:29.765Z,22.51
2018-09-04T01:59:01.867Z,22.50
2018-09-04T01:59:34.207Z,22.50
2018-09-04T02:00:06.326Z,22.50
2018-09-04T02:00:38.492Z,22.51
2018-09-04T02:01:10.824Z,22.50
2018-09-04T02:01:42.921Z,22.50
2018-09-04T02:02:14.985Z,22.51
2018-09-04T02:02:47.098Z,22.52
2018-09-04T02:03:19.153Z,22.51
2018-09-04T02:03:51.418Z,22.52
2018-09-04T02:04:23.496Z,22.51
2018-09-04T02:04:55.597Z,22.51
2018-09-04T02:05:27.762Z,22.51
2018-09-04T02:05:59.833Z,22.51
2018-09-04T02:06:32.134Z,22.51
2018-09-04T02:07:04.201Z,22.51
2018-09-04T02:07:36.449Z,22.51
2018-09-04T02:08:08.560Z,22.51
2018-09-04T02:08:40.653Z,22.51
2018-09-04T02:09:12.762Z,22.51
2018-09-04T02:09:45.061Z,22.50
2018-09-04T02:10:17.178Z,22.52
2018-09-04T02:10:49.576Z,22.51
2018-09-04T02:11:21.663Z,22.50
2018-09-04T02:11:53.871Z,22.51
2018-09-04T02:12:26.007Z,22.51
2018-09-04T02:12:58.130Z,22.48
2018-09-04T02:13:30.239Z,22.50
2018-09-04T02:14:02.497Z,22.51
2018-09-04T02:14:34.642Z,22.50
2018-09-04T02:15:06.812Z,22.51
2018-09-04T02:15:38.904Z,22.51
2018-09-04T02:16:11.256Z,22.50
2018-09-04T02:16:43.362Z,22.51
2018-09-04T02:17:15.448Z,22.51
2018-09-04T02:17:47.547Z,22.50
2018-09-04T02:18:19.666Z,22.52
2018-09-04T02:18:51.794Z,22.52
2018-09-04T02:19:24.069Z,22.51
2018-09-04T02:19:56.138Z,22.52
2018-09-04T02:20:28.208Z,22.52
2018-09-04T02:21:00.394Z,22.50
2018-09-04T02:21:32.544Z,22.48
2018-09-04T02:22:04.671Z,22.51
2018-09-04T02:22:36.772Z,22.51
2018-09-04T02:23:08.965Z,22.52
2018-09-04T02:23:41.070Z,22.50
2018-09-04T02:24:13.246Z,22.49
2018-09-04T02:24:45.336Z,22.50
2018-09-04T02:25:17.473Z,22.50
2018-09-04T02:25:49.677Z,22.50
2018-09-04T02:26:21.873Z,22.48
2018-09-04T02:26:53.970Z,22.48
2018-09-04T02:27:26.070Z,22.50
2018-09-04T02:27:58.186Z,22.47
2018-09-04T02:28:30.377Z,22.47
2018-09-04T02:29:02.477Z,22.48
2018-09-04T02:29:34.807Z,22.48
2018-09-04T02:30:06.870Z,22.50
2018-09-04T02:30:39.105Z,22.49
2018-09-04T02:31:11.251Z,22.48
2018-09-04T02:31:43.390Z,22.48
2018-09-04T02:32:15.576Z,22.50
2018-09-04T02:32:47.693Z,22.48
2018-09-04T02:33:19.779Z,22.48
2018-09-04T02:33:52.131Z,22.47
2018-09-04T02:34:24.217Z,22.48
2018-09-04T02:34:56.313Z,22.49
2018-09-04T02:35:28.409Z,22.49
2018-09-04T02:36:00.705Z,22.49
2018-09-04T02:36:33.006Z,22.50
2018-09-04T02:37:05.150Z,22.50
2018-09-04T02:37:37.417Z,22.50
2018-09-04T02:38:09.479Z,22.48
2018-09-04T02:38:41.688Z,22.49
2018-09-04T02:39:13.827Z,22.51
2018-09-04T02:39:45.954Z,22.50
2018-09-04T02:40:18.029Z,22.50
2018-09-04T02:40:50.145Z,22.50
2018-09-04T02:41:22.261Z,22.49
2018-09-04T02:41:54.373Z,22.49
2018-09-04T02:42:26.479Z,22.50
2018-09-04T02:42:58.589Z,22.51
2018-09-04T02:43:30.685Z,22.52
2018-09-04T02:44:02.800Z,22.52
2018-09-04T02:44:34.885Z,22.51
2018-09-04T02:45:07.059Z,22.51
2018-09-04T02:45:39.477Z,22.51
2018-09-04T02:46:11.607Z,22.51
2018-09-04T02:46:43.737Z,22.50
2018-09-04T02:47:15.814Z,22.51
2018-09-04T02:47:47.882Z,22.50
2018-09-04T02:48:20.032Z,22.51
2018-09-04T02:48:52.335Z,22.51
2018-09-04T02:49:24.459Z,22.48
2018-09-04T02:49:56.559Z,22.48
2018-09-04T02:50:28.663Z,22.47
2018-09-04T02:51:00.815Z,22.47
2018-09-04T02:51:32.962Z,22.50
2018-09-04T02:52:05.036Z,22.50
2018-09-04T02:52:37.168Z,22.51
2018-09-04T02:53:09.256Z,22.50
2018-09-04T02:53:41.321Z,22.51
2018-09-04T02:54:13.682Z,22.51
2018-09-04T02:54:45.838Z,22.50
2018-09-04T02:55:17.901Z,22.48
2018-09-04T02:55:50.008Z,22.50
2018-09-04T02:56:22.116Z,22.51
2018-09-04T02:56:54.338Z,22.50
2018-09-04T02:57:26.429Z,22.50
2018-09-04T02:57:58.544Z,22.50
2018-09-04T02:58:30.651Z,22.49
2018-09-04T02:59:02.761Z,22.47
2018-09-04T02:59:34.870Z,22.50
2018-09-04T03:00:06.955Z,22.50
2018-09-04T03:00:39.030Z,22.50
2018-09-04T03:01:11.173Z,22.49
2018-09-04T03:01:43.384Z,22.48
2018-09-04T03:02:15.506Z,22.48
2018-09-04T03:02:47.649Z,22.47
2018-09-04T03:03:19.952Z,22.48
2018-09-04T03:03:52.056Z,22.46
2018-09-04T03:04:24.147Z,22.46
2018-09-04T03:04:56.266Z,22.47
2018-09-04T03:05:28.369Z,22.46
2018-09-04T03:06:00.461Z,22.46
2018-09-04T03:06:32.566Z,22.46
2018-09-04T03:07:04.634Z,22.46
2018-09-04T03:07:36.691Z,22.46
2018-09-04T03:08:08.925Z,22.46
2018-09-04T03:08:41.028Z,22.47
2018-09-04T03:09:13.240Z,22.47
2018-09-04T03:09:45.350Z,22.47
2018-09-04T03:10:17.482Z,22.48
2018-09-04T03:10:49.569Z,22.50
2018-09-04T03:11:21.686Z,22.47
2018-09-04T03:11:53.932Z,22.48
2018-09-04T03:12:26.051Z,22.47
2018-09-04T03:12:58.197Z,22.48
2018-09-04T03:13:30.445Z,22.48
2018-09-04T03:14:02.772Z,22.47
2018-09-04T03:14:34.729Z,22.47
2018-09-04T03:15:06.873Z,22.46
2018-09-04T03:15:39.081Z,22.48
2018-09-04T03:16:11.157Z,22.48
2018-09-04T03:16:43.258Z,22.48
2018-09-04T03:17:15.416Z,22.48
2018-09-04T03:17:47.637Z,22.47
2018-09-04T03:18:19.791Z,22.47
2018-09-04T03:18:51.885Z,22.47
2018-09-04T03:19:23.986Z,22.48
2018-09-04T03:19:56.086Z,22.47
2018-09-04T03:20:28.162Z,22.46
2018-09-04T03:21:00.273Z,22.45
2018-09-04T03:21:32.509Z,22.46
2018-09-04T03:22:04.594Z,22.46
2018-09-04T03:22:36.695Z,22.47
2018-09-04T03:23:08.802Z,22.47
2018-09-04T03:23:40.988Z,22.45
2018-09-04T03:24:13.084Z,22.46
2018-09-04T03:24:45.190Z,22.45
2018-09-04T03:25:17.304Z,22.46
2018-09-04T03:25:49.440Z,22.48
2018-09-04T03:26:21.548Z,22.46
2018-09-04T03:26:53.617Z,22.46
2018-09-04T03:27:25.736Z,22.47
2018-09-04T03:27:58.113Z,22.46
2018-09-04T03:28:30.185Z,22.47
2018-09-04T03:29:02.304Z,22.46
2018-09-04T03:29:34.406Z,22.45
2018-09-04T03:30:06.515Z,22.45
2018-09-04T03:30:38.780Z,22.45
2018-09-04T03:31:10.986Z,22.45
2018-09-04T03:31:43.126Z,22.46
2018-09-04T03:32:15.185Z,22.46
2018-09-04T03:32:47.300Z,22.45
2018-09-04T03:33:19.453Z,22.45
2018-09-04T03:33:51.526Z,22.45
2018-09-04T03:34:23.688Z,22.45
2018-09-04T03:34:55.805Z,22.45
2018-09-04T03:35:28.006Z,22.45
2018-09-04T03:36:00.151Z,22.45
2018-09-04T03:36:32.258Z,22.46
2018-09-04T03:37:04.315Z,22.46
2018-09-04T03:37:36.385Z,22.45
2018-09-04T03:38:08.490Z,22.45
2018-09-04T03:38:40.610Z,22.46
2018-09-04T03:39:12.685Z,22.45
2018-09-04T03:39:44.871Z,22.45
2018-09-04T03:40:16.965Z,22.45
2018-09-04T03:40:49.027Z,22.46
2018-09-04T03:41:21.165Z,22.46
2018-09-04T03:41:53.333Z,22.45
2018-09-04T03:42:25.551Z,22.44
2018-09-04T03:42:57.701Z,22.44
2018-09-04T03:43:29.779Z,22.44
2018-09-04T03:44:01.905Z,22.43
2018-09-04T03:44:33.958Z,22.44
2018-09-04T03:45:06.084Z,22.44
2018-09-04T03:45:38.168Z,22.43
2018-09-04T03:46:10.270Z,22.44
2018-09-04T03:46:42.349Z,22.44
2018-09-04T03:47:14.568Z,22.44
2018-09-04T03:47:46.653Z,22.44
2018-09-04T03:48:18.738Z,22.45
2018-09-04T03:48:50.794Z,22.45
2018-09-04T03:49:22.909Z,22.46
2018-09-04T03:49:55.134Z,22.46
2018-09-04T03:50:27.291Z,22.47
2018-09-04T03:50:59.393Z,22.44
2018-09-04T03:51:31.771Z,22.45
2018-09-04T03:52:03.865Z,22.45
2018-09-04T03:52:35.930Z,22.45
2018-09-04T03:53:07.995Z,22.45
2018-09-04T03:53:40.102Z,22.45
2018-09-04T03:54:12.188Z,22.45
2018-09-04T03:54:44.257Z,22.45
2018-09-04T03:55:16.314Z,22.46
2018-09-04T03:55:48.385Z,22.44
2018-09-04T03:56:20.571Z,22.46
2018-09-04T03:56:52.636Z,22.45
2018-09-04T03:57:24.709Z,22.44
2018-09-04T03:57:56.798Z,22.45
2018-09-04T03:58:28.878Z,22.45
2018-09-04T03:59:00.946Z,22.44
2018-09-04T03:59:33.034Z,22.45
2018-09-04T04:00:05.142Z,22.44
2018-09-04T04:00:37.218Z,22.44
2018-09-04T04:01:09.309Z,22.45
2018-09-04T04:01:41.395Z,22.44
2018-09-04T04:02:13.476Z,22.44
2018-09-04T04:02:45.577Z,22.44
2018-09-04T04:03:17.656Z,22.44
2018-09-04T04:03:49.716Z,22.44
2018-09-04T04:04:22.105Z,22.44
2018-09-04T04:04:54.281Z,22.42
2018-09-04T04:05:26.381Z,22.42
2018-09-04T04:05:58.703Z,22.43
2018-09-04T04:06:30.885Z,22.43
2018-09-04T04:07:02.950Z,22.44
2018-09-04T04:07:35.025Z,22.44
2018-09-04T04:08:07.155Z,22.44
2018-09-04T04:08:39.248Z,22.44
2018-09-04T04:09:11.351Z,22.44
2018-09-04T04:09:43.398Z,22.44
2018-09-04T04:10:15.492Z,22.44
2018-09-04T04:10:47.560Z,22.44
2018-09-04T04:11:19.632Z,22.44
2018-09-04T04:11:51.726Z,22.45
2018-09-04T04:12:23.800Z,22.43
2018-09-04T04:12:55.904Z,22.43
2018-09-04T04:13:28.009Z,22.43
2018-09-04T04:14:00.092Z,22.43
2018-09-04T04:14:32.148Z,22.43
2018-09-04T04:15:04.396Z,22.43
2018-09-04T04:15:36.476Z,22.44
2018-09-04T04:16:08.557Z,22.44
2018-09-04T04:16:40.872Z,22.44
2018-09-04T04:17:12.947Z,22.43
2018-09-04T04:17:45.020Z,22.44
2018-09-04T04:18:17.130Z,22.44
2018-09-04T04:18:49.204Z,22.44
2018-09-04T04:19:21.574Z,22.44
2018-09-04T04:19:53.645Z,22.44
2018-09-04T04:20:25.713Z,22.44
2018-09-04T04:20:57.829Z,22.43
2018-09-04T04:21:29.933Z,22.43
2018-09-04T04:22:02.188Z,22.44
2018-09-04T04:22:34.247Z,22.44
2018-09-04T04:23:06.379Z,22.44
2018-09-04T04:23:38.486Z,22.43
2018-09-04T04:24:10.693Z,22.43
2018-09-04T04:24:42.814Z,22.44
2018-09-04T04:25:14.889Z,22.44
2018-09-04T04:25:47.032Z,22.43
2018-09-04T04:26:19.098Z,22.44
2018-09-04T04:26:51.206Z,22.43
2018-09-04T04:27:23.286Z,22.44
2018-09-04T04:27:55.412Z,22.44
2018-09-04T04:28:27.631Z,22.43
2018-09-04T04:28:59.934Z,22.44
2018-09-04T04:29:32.011Z,22.43
2018-09-04T04:30:04.173Z,22.43
2018-09-04T04:30:36.229Z,22.42
2018-09-04T04:31:08.429Z,22.43
2018-09-04T04:31:40.478Z,22.43
2018-09-04T04:32:12.565Z,22.43
2018-09-04T04:32:44.686Z,22.43
2018-09-04T04:33:16.756Z,22.43
2018-09-04T04:33:48.909Z,22.44
2018-09-04T04:34:20.983Z,22.43
2018-09-04T04:34:53.076Z,22.43
2018-09-04T04:35:25.160Z,22.43
2018-09-04T04:35:57.323Z,22.44
2018-09-04T04:36:29.437Z,22.44
2018-09-04T04:37:01.585Z,22.44
2018-09-04T04:37:33.689Z,22.42
2018-09-04T04:38:05.785Z,22.43
2018-09-04T04:38:37.974Z,22.42
2018-09-04T04:39:10.058Z,22.42
2018-09-04T04:39:42.111Z,22.42
2018-09-04T04:40:14.230Z,22.42
2018-09-04T04:40:46.379Z,22.41
2018-09-04T04:41:18.453Z,22.42
2018-09-04T04:41:50.514Z,22.42
2018-09-04T04:42:22.643Z,22.43
2018-09-04T04:42:54.711Z,22.42
2018-09-04T04:43:26.846Z,22.41
2018-09-04T04:43:58.942Z,22.42
2018-09-04T04:44:31.057Z,22.42
2018-09-04T04:45:03.157Z,22.41
2018-09-04T04:45:35.381Z,22.40
2018-09-04T04:46:07.573Z,22.40
2018-09-04T04:46:39.769Z,22.40
2018-09-04T04:47:11.844Z,22.40
2018-09-04T04:47:44.070Z,22.41
2018-09-04T04:48:16.132Z,22.40
2018-09-04T04:48:48.252Z,22.40
2018-09-04T04:49:20.539Z,22.40
2018-09-04T04:49:52.655Z,22.41
2018-09-04T04:50:25.021Z,22.41
2018-09-04T04:50:57.126Z,22.40
2018-09-04T04:51:29.204Z,22.41
2018-09-04T04:52:01.289Z,22.40
2018-09-04T04:52:33.611Z,22.41
2018-09-04T04:53:05.686Z,22.40
2018-09-04T04:53:37.877Z,22.40
2018-09-04T04:54:09.989Z,22.40
2018-09-04T04:54:42.106Z,22.41
2018-09-04T04:55:14.211Z,22.39
2018-09-04T04:55:46.299Z,22.40
2018-09-04T04:56:18.382Z,22.39
2018-09-04T04:56:50.613Z,22.40
2018-09-04T04:57:22.783Z,22.40
2018-09-04T04:57:54.893Z,22.39
2018-09-04T04:58:26.992Z,22.38
2018-09-04T04:58:59.195Z,22.38
2018-09-04T04:59:31.324Z,22.39
2018-09-04T05:00:03.394Z,22.40
2018-09-04T05:00:35.576Z,22.41
2018-09-04T05:01:07.895Z,22.41
2018-09-04T05:01:40.066Z,22.40
2018-09-04T05:02:12.132Z,22.42
2018-09-04T05:02:44.234Z,22.42
2018-09-04T05:03:16.355Z,22.43
2018-09-04T05:03:48.417Z,22.44
2018-09-04T05:04:20.645Z,22.45
2018-09-04T05:04:52.861Z,22.45
2018-09-04T05:05:24.967Z,22.46
2018-09-04T05:05:57.054Z,22.44
2018-09-04T05:06:29.231Z,22.44
2018-09-04T05:07:01.359Z,22.44
2018-09-04T05:07:33.484Z,22.44
2018-09-04T05:08:05.638Z,22.43
2018-09-04T05:08:37.717Z,22.44
2018-09-04T05:09:09.777Z,22.42
2018-09-04T05:09:42.011Z,22.44
2018-09-04T05:10:14.150Z,22.43
2018-09-04T05:10:46.290Z,22.43
2018-09-04T05:11:18.770Z,22.42
2018-09-04T05:11:50.713Z,22.41
2018-09-04T05:12:22.833Z,22.40
2018-09-04T05:12:54.904Z,22.41
2018-09-04T05:13:27.177Z,22.41
2018-09-04T05:13:59.417Z,22.41
2018-09-04T05:14:31.738Z,22.40
2018-09-04T05:15:03.996Z,22.41
2018-09-04T05:15:36.093Z,22.41
2018-09-04T05:16:08.192Z,22.39
2018-09-04T05:16:40.291Z,22.41
2018-09-04T05:17:12.609Z,22.40
2018-09-04T05:17:44.820Z,22.40
2018-09-04T05:18:16.879Z,22.42
2018-09-04T05:18:49.069Z,22.44
2018-09-04T05:19:21.179Z,22.42
2018-09-04T05:19:53.275Z,22.43
2018-09-04T05:20:25.338Z,22.43
2018-09-04T05:20:57.588Z,22.44
2018-09-04T05:21:29.705Z,22.44
2018-09-04T05:22:01.833Z,22.44
2018-09-04T05:22:34.078Z,22.45
2018-09-04T05:23:06.306Z,22.47
2018-09-04T05:23:38.537Z,22.47
2018-09-04T05:24:10.714Z,22.46
2018-09-04T05:24:42.809Z,22.46
2018-09-04T05:25:14.911Z,22.47
2018-09-04T05:25:47.162Z,22.46
2018-09-04T05:26:19.498Z,22.46
2018-09-04T05:26:51.737Z,22.46
2018-09-04T05:27:24.154Z,22.46
2018-09-04T05:27:56.229Z,22.47
2018-09-04T05:28:28.349Z,22.46
2018-09-04T05:29:00.449Z,22.46
2018-09-04T05:29:32.671Z,22.48
2018-09-04T05:30:05.070Z,22.50
2018-09-04T05:30:37.377Z,22.46
2018-09-04T05:31:09.454Z,22.46
2018-09-04T05:31:42.183Z,22.45
2018-09-04T05:32:14.318Z,22.45
2018-09-04T05:32:46.684Z,22.45
2018-09-04T05:33:18.799Z,22.46
2018-09-04T05:33:50.876Z,22.45
2018-09-04T05:34:22.955Z,22.45
2018-09-04T05:34:55.410Z,22.45
2018-09-04T05:35:27.481Z,22.44
2018-09-04T05:35:59.558Z,22.44
2018-09-04T05:36:31.639Z,22.44
2018-09-04T05:37:03.933Z,22.44
2018-09-04T05:37:36.051Z,22.44
2018-09-04T05:38:08.097Z,22.42
2018-09-04T05:38:40.212Z,22.44
2018-09-04T05:39:12.296Z,22.42
2018-09-04T05:39:44.482Z,22.43
2018-09-04T05:40:16.785Z,22.42
2018-09-04T05:40:48.895Z,22.42
2018-09-04T05:41:21.110Z,22.42
2018-09-04T05:41:53.212Z,22.43
2018-09-04T05:42:25.383Z,22.42
2018-09-04T05:42:57.490Z,22.43
2018-09-04T05:43:29.586Z,22.44
2018-09-04T05:44:01.697Z,22.43
2018-09-04T05:44:33.774Z,22.43
2018-09-04T05:45:06.031Z,22.46
2018-09-04T05:45:38.276Z,22.47
2018-09-04T05:46:10.346Z,22.50
2018-09-04T05:46:42.478Z,22.47
2018-09-04T05:47:14.616Z,22.47
2018-09-04T05:47:46.775Z,22.45
2018-09-04T05:48:18.878Z,22.45
2018-09-04T05:48:50.967Z,22.48
2018-09-04T05:49:23.051Z,22.52
2018-09-04T05:49:55.270Z,22.50
2018-09-04T05:50:27.365Z,22.47
2018-09-04T05:50:59.461Z,22.53
2018-09-04T05:51:31.659Z,22.54
2018-09-04T05:52:03.867Z,22.55
2018-09-04T05:52:36.076Z,22.59
2018-09-04T05:53:08.289Z,22.60
2018-09-04T05:53:40.586Z,22.59
2018-09-04T05:54:12.887Z,22.60
2018-09-04T05:54:45.018Z,22.58
2018-09-04T05:55:17.271Z,22.56
2018-09-04T05:55:49.853Z,22.54
2018-09-04T05:56:22.039Z,22.51
2018-09-04T05:56:54.254Z,22.50
2018-09-04T05:57:26.550Z,22.48
2018-09-04T05:57:58.621Z,22.46
2018-09-04T05:58:30.717Z,22.46
2018-09-04T05:59:02.845Z,22.45
2018-09-04T05:59:35.065Z,22.44
2018-09-04T06:00:07.200Z,22.45
2018-09-04T06:00:39.301Z,22.44
2018-09-04T06:01:11.402Z,22.44
2018-09-04T06:01:43.600Z,22.44
2018-09-04T06:02:15.653Z,22.44
2018-09-04T06:02:47.765Z,22.45
2018-09-04T06:03:19.886Z,22.45
2018-09-04T06:03:52.337Z,22.44
2018-09-04T06:04:24.434Z,22.46
2018-09-04T06:04:56.621Z,22.45
2018-09-04T06:05:28.764Z,22.44
2018-09-04T06:06:00.973Z,22.44
2018-09-04T06:06:33.051Z,22.43
2018-09-04T06:07:05.146Z,22.43
2018-09-04T06:07:37.366Z,22.43
2018-09-04T06:08:09.576Z,22.42
2018-09-04T06:08:41.695Z,22.40
2018-09-04T06:09:13.945Z,22.41
2018-09-04T06:09:46.188Z,22.40
2018-09-04T06:10:18.279Z,22.40
2018-09-04T06:10:50.346Z,22.41
2018-09-04T06:11:22.549Z,22.41
2018-09-04T06:11:54.694Z,22.40
2018-09-04T06:12:26.820Z,22.40
2018-09-04T06:12:58.936Z,22.40
2018-09-04T06:13:31.084Z,22.42
2018-09-04T06:14:03.105Z,22.41
2018-09-04T06:14:35.334Z,22.39
2018-09-04T06:15:07.399Z,22.39
2018-09-04T06:15:39.500Z,22.40
2018-09-04T06:16:11.564Z,22.40
2018-09-04T06:16:43.653Z,22.41
2018-09-04T06:17:15.762Z,22.39
2018-09-04T06:17:47.865Z,22.38
2018-09-04T06:18:20.088Z,22.38
2018-09-04T06:18:52.303Z,22.38
2018-09-04T06:19:24.437Z,22.40
2018-09-04T06:19:56.987Z,22.40
2018-09-04T06:20:29.035Z,22.39
2018-09-04T06:21:01.206Z,22.39
2018-09-04T06:21:33.378Z,22.40
2018-09-04T06:22:05.637Z,22.41
2018-09-04T06:22:37.738Z,22.42
2018-09-04T06:23:09.867Z,22.39
2018-09-04T06:23:41.970Z,22.40
2018-09-04T06:24:14.065Z,22.41
2018-09-04T06:24:46.164Z,22.40
2018-09-04T06:25:18.286Z,22.38
2018-09-04T06:25:50.572Z,22.40
2018-09-04T06:26:22.654Z,22.40
2018-09-04T06:26:54.854Z,22.40
2018-09-04T06:27:26.958Z,22.38
2018-09-04T06:27:59.261Z,22.37
2018-09-04T06:28:31.337Z,22.38
2018-09-04T06:29:03.495Z,22.39
2018-09-04T06:29:35.760Z,22.40
2018-09-04T06:30:07.875Z,22.40
2018-09-04T06:30:40.159Z,22.39
2018-09-04T06:31:12.237Z,22.37
2018-09-04T06:31:44.331Z,22.39
2018-09-04T06:32:16.595Z,22.40
2018-09-04T06:32:48.694Z,22.38
2018-09-04T06:33:21.147Z,22.38
2018-09-04T06:33:53.244Z,22.38
2018-09-04T06:34:25.337Z,22.38
2018-09-04T06:34:57.622Z,22.37
2018-09-04T06:35:29.910Z,22.36
2018-09-04T06:36:02.043Z,22.37
2018-09-04T06:36:34.217Z,22.36
2018-09-04T06:37:06.323Z,22.38
2018-09-04T06:37:38.443Z,22.37
2018-09-04T06:38:10.690Z,22.38
2018-09-04T06:38:42.829Z,22.37
2018-09-04T06:39:15.168Z,22.38
2018-09-04T06:39:47.247Z,22.38
2018-09-04T06:40:19.362Z,22.38
2018-09-04T06:40:51.492Z,22.38
2018-09-04T06:41:23.601Z,22.38
2018-09-04T06:41:55.693Z,22.38
2018-09-04T06:42:27.885Z,22.38
2018-09-04T06:42:59.991Z,22.38
2018-09-04T06:43:32.130Z,22.38
2018-09-04T06:44:04.214Z,22.37
2018-09-04T06:44:36.350Z,22.38
2018-09-04T06:45:08.479Z,22.38
2018-09-04T06:45:40.782Z,22.38
2018-09-04T06:46:12.965Z,22.38
2018-09-04T06:46:45.128Z,22.38
2018-09-04T06:47:17.208Z,22.38
2018-09-04T06:47:49.304Z,22.37
2018-09-04T06:48:21.420Z,22.38
2018-09-04T06:48:53.520Z,22.37
2018-09-04T06:49:25.794Z,22.37
2018-09-04T06:49:57.904Z,22.36
2018-09-04T06:50:29.969Z,22.37
2018-09-04T06:51:02.159Z,22.37
2018-09-04T06:51:34.422Z,22.35
2018-09-04T06:52:06.533Z,22.36
2018-09-04T06:52:38.649Z,22.36
2018-09-04T06:53:10.721Z,22.37
2018-09-04T06:53:42.809Z,22.35